Berwyn, New York
Current Conditions -  °F | °C
As of 2:54 AM on Friday 28 Nov 2014 (Local Time) from KSYR Reporting Station
Broken Clouds Broken Clouds  
Wind Chill: 17°   Ceiling: 3500
Heat Index: 26°   Visibility: 10mi
Dew Point: 21°   Wind: 9mph
Humidity: 81%   Direction: 280°W
Pressure: 30.1"   Gusts: NA
Location:  42.8894°N, 76.1084°W
Report Text: KSYR 280754Z 28008KT 10SM BKN035 BKN095 M03/M06 A3010 RMK AO2 SLP195 T10331061
Loading
Personal Weather Stations






























Interactive Weather Map New forecast layout! Learn more

10-Day Weather Forecast

Advertisements
Track Severe Weather on mobile